sensor_id;sensor_type;location;lat;lon;timestamp;P1;durP1;ratioP1;P2;durP2;ratioP2
62574;SDS011;53112;45.602;11.904;2022-08-26T00:01:38;6.25;;;3.80;;
62574;SDS011;53112;45.602;11.904;2022-08-26T00:04:06;5.90;;;3.85;;
62574;SDS011;53112;45.602;11.904;2022-08-26T00:06:33;4.68;;;3.45;;
62574;SDS011;53112;45.602;11.904;2022-08-26T00:09:00;7.82;;;3.63;;
62574;SDS011;53112;45.602;11.904;2022-08-26T00:11:28;7.20;;;3.63;;
62574;SDS011;53112;45.602;11.904;2022-08-26T00:13:54;4.75;;;3.60;;
62574;SDS011;53112;45.602;11.904;2022-08-26T00:16:22;6.85;;;4.00;;
62574;SDS011;53112;45.602;11.904;2022-08-26T00:18:49;4.97;;;3.55;;
62574;SDS011;53112;45.602;11.904;2022-08-26T00:21:16;5.63;;;3.90;;
62574;SDS011;53112;45.602;11.904;2022-08-26T00:23:43;6.45;;;4.20;;
62574;SDS011;53112;45.602;11.904;2022-08-26T00:26:10;5.40;;;3.70;;
62574;SDS011;53112;45.602;11.904;2022-08-26T00:28:37;5.25;;;3.60;;
62574;SDS011;53112;45.602;11.904;2022-08-26T00:31:04;5.60;;;4.00;;
62574;SDS011;53112;45.602;11.904;2022-08-26T00:33:30;5.25;;;4.07;;
62574;SDS011;53112;45.602;11.904;2022-08-26T00:35:56;6.47;;;4.10;;
62574;SDS011;53112;45.602;11.904;2022-08-26T00:38:23;6.22;;;3.97;;
62574;SDS011;53112;45.602;11.904;2022-08-26T00:40:51;4.78;;;3.67;;
62574;SDS011;53112;45.602;11.904;2022-08-26T00:43:20;6.47;;;4.00;;
62574;SDS011;53112;45.602;11.904;2022-08-26T00:45:50;4.82;;;3.53;;
62574;SDS011;53112;45.602;11.904;2022-08-26T00:48:18;4.70;;;3.60;;
62574;SDS011;53112;45.602;11.904;2022-08-26T00:50:49;6.88;;;4.20;;
62574;SDS011;53112;45.602;11.904;2022-08-26T00:53:18;5.93;;;4.00;;
62574;SDS011;53112;45.602;11.904;2022-08-26T00:56:19;8.10;;;4.10;;
62574;SDS011;53112;45.602;11.904;2022-08-26T00:58:42;7.05;;;4.32;;
62574;SDS011;53112;45.602;11.904;2022-08-26T01:01:12;5.10;;;3.72;;
62574;SDS011;53112;45.602;11.904;2022-08-26T01:03:39;4.97;;;3.90;;
62574;SDS011;53112;45.602;11.904;2022-08-26T01:06:07;5.28;;;3.58;;
62574;SDS011;53112;45.602;11.904;2022-08-26T01:08:34;5.30;;;3.80;;
62574;SDS011;53112;45.602;11.904;2022-08-26T01:11:00;5.57;;;3.88;;
62574;SDS011;53112;45.602;11.904;2022-08-26T01:13:28;6.50;;;3.72;;
62574;SDS011;53112;45.602;11.904;2022-08-26T01:15:57;5.93;;;3.90;;
62574;SDS011;53112;45.602;11.904;2022-08-26T01:18:24;5.75;;;4.10;;
62574;SDS011;53112;45.602;11.904;2022-08-26T01:23:41;5.03;;;3.80;;
62574;SDS011;53112;45.602;11.904;2022-08-26T01:26:17;6.38;;;3.85;;
62574;SDS011;53112;45.602;11.904;2022-08-26T01:28:50;4.57;;;3.50;;
62574;SDS011;53112;45.602;11.904;2022-08-26T01:31:21;5.47;;;3.78;;
62574;SDS011;53112;45.602;11.904;2022-08-26T01:33:54;6.82;;;4.13;;
62574;SDS011;53112;45.602;11.904;2022-08-26T01:36:22;5.68;;;4.03;;
62574;SDS011;53112;45.602;11.904;2022-08-26T01:38:48;6.28;;;4.20;;
62574;SDS011;53112;45.602;11.904;2022-08-26T01:41:14;6.00;;;3.83;;
62574;SDS011;53112;45.602;11.904;2022-08-26T01:43:44;5.32;;;3.83;;
62574;SDS011;53112;45.602;11.904;2022-08-26T01:46:12;6.45;;;4.10;;
62574;SDS011;53112;45.602;11.904;2022-08-26T01:48:39;5.82;;;3.95;;
62574;SDS011;53112;45.602;11.904;2022-08-26T01:51:08;5.68;;;3.97;;
62574;SDS011;53112;45.602;11.904;2022-08-26T01:53:36;6.40;;;4.13;;
62574;SDS011;53112;45.602;11.904;2022-08-26T01:56:04;5.28;;;4.03;;
62574;SDS011;53112;45.602;11.904;2022-08-26T01:58:42;6.55;;;4.63;;
62574;SDS011;53112;45.602;11.904;2022-08-26T02:01:12;6.97;;;5.00;;
62574;SDS011;53112;45.602;11.904;2022-08-26T02:03:45;7.28;;;4.90;;
62574;SDS011;53112;45.602;11.904;2022-08-26T02:06:25;6.65;;;4.60;;
62574;SDS011;53112;45.602;11.904;2022-08-26T02:08:52;7.40;;;4.20;;
62574;SDS011;53112;45.602;11.904;2022-08-26T02:11:20;5.50;;;3.97;;
62574;SDS011;53112;45.602;11.904;2022-08-26T02:13:51;5.88;;;3.88;;
62574;SDS011;53112;45.602;11.904;2022-08-26T02:16:22;5.20;;;3.80;;
62574;SDS011;53112;45.602;11.904;2022-08-26T02:18:51;4.85;;;3.90;;
62574;SDS011;53112;45.602;11.904;2022-08-26T02:21:20;7.90;;;4.20;;
62574;SDS011;53112;45.602;11.904;2022-08-26T02:23:47;6.45;;;4.28;;
62574;SDS011;53112;45.602;11.904;2022-08-26T02:26:14;5.70;;;4.20;;
62574;SDS011;53112;45.602;11.904;2022-08-26T02:28:45;6.45;;;4.35;;
62574;SDS011;53112;45.602;11.904;2022-08-26T02:31:16;9.10;;;4.00;;
62574;SDS011;53112;45.602;11.904;2022-08-26T02:33:42;5.85;;;3.92;;
62574;SDS011;53112;45.602;11.904;2022-08-26T02:36:08;6.15;;;4.55;;
62574;SDS011;53112;45.602;11.904;2022-08-26T02:38:35;7.22;;;4.38;;
62574;SDS011;53112;45.602;11.904;2022-08-26T02:41:01;6.30;;;4.22;;
62574;SDS011;53112;45.602;11.904;2022-08-26T02:43:28;5.75;;;4.22;;
62574;SDS011;53112;45.602;11.904;2022-08-26T02:45:54;7.20;;;4.43;;
62574;SDS011;53112;45.602;11.904;2022-08-26T02:48:20;7.43;;;4.32;;
62574;SDS011;53112;45.602;11.904;2022-08-26T02:50:47;5.20;;;4.20;;
62574;SDS011;53112;45.602;11.904;2022-08-26T02:53:13;6.60;;;4.20;;
62574;SDS011;53112;45.602;11.904;2022-08-26T02:55:40;4.70;;;3.90;;
62574;SDS011;53112;45.602;11.904;2022-08-26T02:58:07;6.30;;;3.90;;
62574;SDS011;53112;45.602;11.904;2022-08-26T03:00:36;5.07;;;3.80;;
62574;SDS011;53112;45.602;11.904;2022-08-26T03:03:03;5.13;;;3.83;;
62574;SDS011;53112;45.602;11.904;2022-08-26T03:05:30;6.03;;;4.07;;
62574;SDS011;53112;45.602;11.904;2022-08-26T03:07:56;7.57;;;4.38;;
62574;SDS011;53112;45.602;11.904;2022-08-26T03:10:22;5.80;;;4.13;;
62574;SDS011;53112;45.602;11.904;2022-08-26T03:12:48;6.03;;;3.97;;
62574;SDS011;53112;45.602;11.904;2022-08-26T03:15:14;5.18;;;3.95;;
62574;SDS011;53112;45.602;11.904;2022-08-26T03:17:45;6.38;;;4.03;;
62574;SDS011;53112;45.602;11.904;2022-08-26T03:22:40;5.70;;;3.72;;
62574;SDS011;53112;45.602;11.904;2022-08-26T03:25:08;5.18;;;3.70;;
62574;SDS011;53112;45.602;11.904;2022-08-26T03:27:36;7.00;;;4.45;;
62574;SDS011;53112;45.602;11.904;2022-08-26T03:30:02;7.50;;;4.78;;
62574;SDS011;53112;45.602;11.904;2022-08-26T03:32:48;5.93;;;4.45;;
62574;SDS011;53112;45.602;11.904;2022-08-26T03:35:14;6.22;;;4.68;;
62574;SDS011;53112;45.602;11.904;2022-08-26T03:37:41;8.13;;;4.55;;
62574;SDS011;53112;45.602;11.904;2022-08-26T03:40:08;5.70;;;4.25;;
62574;SDS011;53112;45.602;11.904;2022-08-26T03:42:36;5.18;;;4.00;;
62574;SDS011;53112;45.602;11.904;2022-08-26T03:45:05;6.95;;;4.60;;
62574;SDS011;53112;45.602;11.904;2022-08-26T03:47:33;7.18;;;4.30;;
62574;SDS011;53112;45.602;11.904;2022-08-26T03:49:59;6.03;;;4.57;;
62574;SDS011;53112;45.602;11.904;2022-08-26T03:52:25;6.68;;;4.47;;
62574;SDS011;53112;45.602;11.904;2022-08-26T03:54:51;7.13;;;4.53;;
62574;SDS011;53112;45.602;11.904;2022-08-26T03:57:17;5.45;;;4.40;;
62574;SDS011;53112;45.602;11.904;2022-08-26T03:59:43;6.60;;;4.40;;
62574;SDS011;53112;45.602;11.904;2022-08-26T04:02:09;5.93;;;4.28;;
62574;SDS011;53112;45.602;11.904;2022-08-26T04:04:35;7.88;;;4.30;;
62574;SDS011;53112;45.602;11.904;2022-08-26T04:07:02;6.30;;;4.00;;
62574;SDS011;53112;45.602;11.904;2022-08-26T04:09:28;6.00;;;3.90;;
62574;SDS011;53112;45.602;11.904;2022-08-26T04:11:54;6.10;;;4.28;;
62574;SDS011;53112;45.602;11.904;2022-08-26T04:14:23;5.70;;;4.30;;
62574;SDS011;53112;45.602;11.904;2022-08-26T04:16:51;6.72;;;4.30;;
62574;SDS011;53112;45.602;11.904;2022-08-26T04:19:19;6.75;;;4.45;;
62574;SDS011;53112;45.602;11.904;2022-08-26T04:21:46;5.88;;;3.95;;
62574;SDS011;53112;45.602;11.904;2022-08-26T04:24:15;5.82;;;4.07;;
62574;SDS011;53112;45.602;11.904;2022-08-26T04:26:42;6.97;;;4.35;;
62574;SDS011;53112;45.602;11.904;2022-08-26T04:29:10;5.28;;;4.28;;
62574;SDS011;53112;45.602;11.904;2022-08-26T04:31:38;6.15;;;4.20;;
62574;SDS011;53112;45.602;11.904;2022-08-26T04:34:05;6.30;;;4.20;;
62574;SDS011;53112;45.602;11.904;2022-08-26T04:36:32;7.40;;;4.22;;
62574;SDS011;53112;45.602;11.904;2022-08-26T04:38:59;6.57;;;4.32;;
62574;SDS011;53112;45.602;11.904;2022-08-26T04:41:27;6.07;;;4.00;;
62574;SDS011;53112;45.602;11.904;2022-08-26T04:43:54;6.00;;;4.28;;
62574;SDS011;53112;45.602;11.904;2022-08-26T04:46:22;9.25;;;4.90;;
62574;SDS011;53112;45.602;11.904;2022-08-26T04:48:50;8.73;;;5.07;;
62574;SDS011;53112;45.602;11.904;2022-08-26T04:51:18;9.18;;;5.07;;
62574;SDS011;53112;45.602;11.904;2022-08-26T04:53:48;6.80;;;4.82;;
62574;SDS011;53112;45.602;11.904;2022-08-26T04:56:14;7.60;;;4.88;;
62574;SDS011;53112;45.602;11.904;2022-08-26T04:58:40;5.38;;;4.38;;
62574;SDS011;53112;45.602;11.904;2022-08-26T05:01:06;7.18;;;4.90;;
62574;SDS011;53112;45.602;11.904;2022-08-26T05:03:32;6.75;;;4.60;;
62574;SDS011;53112;45.602;11.904;2022-08-26T05:06:02;7.80;;;4.93;;
62574;SDS011;53112;45.602;11.904;2022-08-26T05:08:29;8.88;;;4.90;;
62574;SDS011;53112;45.602;11.904;2022-08-26T05:10:55;8.80;;;4.82;;
62574;SDS011;53112;45.602;11.904;2022-08-26T05:13:23;8.40;;;5.07;;
62574;SDS011;53112;45.602;11.904;2022-08-26T05:15:52;5.95;;;4.43;;
62574;SDS011;53112;45.602;11.904;2022-08-26T05:18:19;6.50;;;4.65;;
62574;SDS011;53112;45.602;11.904;2022-08-26T05:20:51;7.03;;;5.20;;
62574;SDS011;53112;45.602;11.904;2022-08-26T05:23:18;7.60;;;4.70;;
62574;SDS011;53112;45.602;11.904;2022-08-26T05:25:47;7.03;;;4.90;;
62574;SDS011;53112;45.602;11.904;2022-08-26T05:28:16;8.15;;;4.68;;
62574;SDS011;53112;45.602;11.904;2022-08-26T05:30:43;7.78;;;5.53;;
62574;SDS011;53112;45.602;11.904;2022-08-26T05:33:10;6.47;;;4.72;;
62574;SDS011;53112;45.602;11.904;2022-08-26T05:35:37;6.22;;;4.72;;
62574;SDS011;53112;45.602;11.904;2022-08-26T05:38:05;7.85;;;5.28;;
62574;SDS011;53112;45.602;11.904;2022-08-26T05:40:33;7.32;;;4.38;;
62574;SDS011;53112;45.602;11.904;2022-08-26T05:43:02;8.13;;;5.35;;
62574;SDS011;53112;45.602;11.904;2022-08-26T05:45:37;7.22;;;5.05;;
62574;SDS011;53112;45.602;11.904;2022-08-26T05:48:07;8.18;;;5.68;;
62574;SDS011;53112;45.602;11.904;2022-08-26T05:50:38;9.40;;;5.65;;
62574;SDS011;53112;45.602;11.904;2022-08-26T05:55:32;7.95;;;4.70;;
62574;SDS011;53112;45.602;11.904;2022-08-26T05:57:58;7.40;;;4.70;;
62574;SDS011;53112;45.602;11.904;2022-08-26T06:00:25;7.85;;;4.70;;
62574;SDS011;53112;45.602;11.904;2022-08-26T06:02:51;6.18;;;4.53;;
62574;SDS011;53112;45.602;11.904;2022-08-26T06:05:17;8.73;;;4.65;;
62574;SDS011;53112;45.602;11.904;2022-08-26T06:07:43;7.78;;;4.80;;
62574;SDS011;53112;45.602;11.904;2022-08-26T06:10:28;6.82;;;4.53;;
62574;SDS011;53112;45.602;11.904;2022-08-26T06:12:55;8.65;;;5.13;;
62574;SDS011;53112;45.602;11.904;2022-08-26T06:15:21;6.47;;;4.38;;
62574;SDS011;53112;45.602;11.904;2022-08-26T06:17:47;8.23;;;4.65;;
62574;SDS011;53112;45.602;11.904;2022-08-26T06:20:13;6.57;;;4.50;;
62574;SDS011;53112;45.602;11.904;2022-08-26T06:22:40;6.97;;;4.63;;
62574;SDS011;53112;45.602;11.904;2022-08-26T06:25:24;5.97;;;4.45;;
62574;SDS011;53112;45.602;11.904;2022-08-26T06:28:02;6.65;;;4.50;;
62574;SDS011;53112;45.602;11.904;2022-08-26T06:30:29;9.70;;;4.95;;
62574;SDS011;53112;45.602;11.904;2022-08-26T06:32:56;8.65;;;4.72;;
62574;SDS011;53112;45.602;11.904;2022-08-26T06:35:22;7.05;;;4.50;;
62574;SDS011;53112;45.602;11.904;2022-08-26T06:37:48;5.82;;;4.00;;
62574;SDS011;53112;45.602;11.904;2022-08-26T06:40:14;8.30;;;4.03;;
62574;SDS011;53112;45.602;11.904;2022-08-26T06:42:40;6.22;;;4.00;;
62574;SDS011;53112;45.602;11.904;2022-08-26T06:45:06;6.25;;;3.75;;
62574;SDS011;53112;45.602;11.904;2022-08-26T06:47:33;6.20;;;3.92;;
62574;SDS011;53112;45.602;11.904;2022-08-26T06:50:00;6.75;;;3.70;;
62574;SDS011;53112;45.602;11.904;2022-08-26T06:52:26;5.93;;;4.22;;
62574;SDS011;53112;45.602;11.904;2022-08-26T06:54:52;6.30;;;4.20;;
62574;SDS011;53112;45.602;11.904;2022-08-26T06:57:18;6.65;;;3.90;;
62574;SDS011;53112;45.602;11.904;2022-08-26T06:59:44;6.65;;;4.25;;
62574;SDS011;53112;45.602;11.904;2022-08-26T07:02:10;6.13;;;3.88;;
62574;SDS011;53112;45.602;11.904;2022-08-26T07:04:36;5.57;;;4.00;;
62574;SDS011;53112;45.602;11.904;2022-08-26T07:07:02;6.57;;;4.35;;
62574;SDS011;53112;45.602;11.904;2022-08-26T07:09:28;6.13;;;3.90;;
62574;SDS011;53112;45.602;11.904;2022-08-26T07:11:57;5.63;;;4.00;;
62574;SDS011;53112;45.602;11.904;2022-08-26T07:14:23;9.40;;;4.00;;
62574;SDS011;53112;45.602;11.904;2022-08-26T07:16:50;6.20;;;3.75;;
62574;SDS011;53112;45.602;11.904;2022-08-26T07:19:17;7.30;;;4.20;;
62574;SDS011;53112;45.602;11.904;2022-08-26T07:21:44;5.65;;;4.18;;
62574;SDS011;53112;45.602;11.904;2022-08-26T07:24:10;7.50;;;4.53;;
62574;SDS011;53112;45.602;11.904;2022-08-26T07:26:37;8.23;;;4.50;;
62574;SDS011;53112;45.602;11.904;2022-08-26T07:29:03;6.35;;;4.55;;
62574;SDS011;53112;45.602;11.904;2022-08-26T07:31:32;6.80;;;4.60;;
62574;SDS011;53112;45.602;11.904;2022-08-26T07:34:01;8.05;;;4.57;;
62574;SDS011;53112;45.602;11.904;2022-08-26T07:36:28;7.97;;;4.10;;
62574;SDS011;53112;45.602;11.904;2022-08-26T07:38:55;6.80;;;4.40;;
62574;SDS011;53112;45.602;11.904;2022-08-26T07:41:22;7.28;;;4.28;;
62574;SDS011;53112;45.602;11.904;2022-08-26T07:43:50;8.75;;;4.70;;
62574;SDS011;53112;45.602;11.904;2022-08-26T07:46:17;8.27;;;4.60;;
62574;SDS011;53112;45.602;11.904;2022-08-26T07:48:45;7.03;;;4.78;;
62574;SDS011;53112;45.602;11.904;2022-08-26T07:51:13;8.73;;;5.30;;
62574;SDS011;53112;45.602;11.904;2022-08-26T07:53:41;7.07;;;5.07;;
62574;SDS011;53112;45.602;11.904;2022-08-26T07:56:08;7.38;;;5.45;;
62574;SDS011;53112;45.602;11.904;2022-08-26T07:58:35;7.22;;;4.97;;
62574;SDS011;53112;45.602;11.904;2022-08-26T08:01:02;8.35;;;5.00;;
62574;SDS011;53112;45.602;11.904;2022-08-26T08:03:29;8.85;;;5.10;;
62574;SDS011;53112;45.602;11.904;2022-08-26T08:05:55;7.32;;;4.82;;
62574;SDS011;53112;45.602;11.904;2022-08-26T08:08:21;7.65;;;5.38;;
62574;SDS011;53112;45.602;11.904;2022-08-26T08:10:48;8.18;;;5.22;;
62574;SDS011;53112;45.602;11.904;2022-08-26T08:13:14;7.90;;;5.10;;
62574;SDS011;53112;45.602;11.904;2022-08-26T08:15:43;6.70;;;4.80;;
62574;SDS011;53112;45.602;11.904;2022-08-26T08:18:10;7.68;;;4.70;;
62574;SDS011;53112;45.602;11.904;2022-08-26T08:20:36;10.35;;;4.78;;
62574;SDS011;53112;45.602;11.904;2022-08-26T08:23:02;8.25;;;4.80;;
62574;SDS011;53112;45.602;11.904;2022-08-26T08:25:29;6.55;;;4.65;;
62574;SDS011;53112;45.602;11.904;2022-08-26T08:27:58;6.95;;;4.55;;
62574;SDS011;53112;45.602;11.904;2022-08-26T08:30:25;7.65;;;4.53;;
62574;SDS011;53112;45.602;11.904;2022-08-26T08:32:52;7.40;;;4.35;;
62574;SDS011;53112;45.602;11.904;2022-08-26T08:35:19;7.32;;;4.60;;
62574;SDS011;53112;45.602;11.904;2022-08-26T08:37:47;5.47;;;4.20;;
62574;SDS011;53112;45.602;11.904;2022-08-26T08:40:19;7.35;;;4.80;;
62574;SDS011;53112;45.602;11.904;2022-08-26T08:43:03;9.63;;;5.00;;
62574;SDS011;53112;45.602;11.904;2022-08-26T08:48:13;7.30;;;4.35;;
62574;SDS011;53112;45.602;11.904;2022-08-26T08:50:54;5.97;;;4.28;;
62574;SDS011;53112;45.602;11.904;2022-08-26T08:53:51;7.43;;;4.78;;
62574;SDS011;53112;45.602;11.904;2022-08-26T09:07:21;9.50;;;4.90;;
62574;SDS011;53112;45.602;11.904;2022-08-26T09:09:53;7.47;;;4.40;;
62574;SDS011;53112;45.602;11.904;2022-08-26T09:12:30;7.60;;;4.30;;
62574;SDS011;53112;45.602;11.904;2022-08-26T09:15:15;7.68;;;4.18;;
62574;SDS011;53112;45.602;11.904;2022-08-26T09:23:11;5.97;;;4.20;;
62574;SDS011;53112;45.602;11.904;2022-08-26T09:25:48;6.50;;;4.25;;
62574;SDS011;53112;45.602;11.904;2022-08-26T09:28:18;6.53;;;4.38;;
62574;SDS011;53112;45.602;11.904;2022-08-26T09:30:46;6.10;;;3.90;;
62574;SDS011;53112;45.602;11.904;2022-08-26T09:33:30;5.97;;;4.28;;
62574;SDS011;53112;45.602;11.904;2022-08-26T09:38:51;7.72;;;4.35;;
62574;SDS011;53112;45.602;11.904;2022-08-26T09:41:26;8.70;;;4.50;;
62574;SDS011;53112;45.602;11.904;2022-08-26T09:46:33;7.47;;;4.10;;
62574;SDS011;53112;45.602;11.904;2022-08-26T09:52:07;6.45;;;4.20;;
62574;SDS011;53112;45.602;11.904;2022-08-26T09:54:58;7.32;;;4.10;;
62574;SDS011;53112;45.602;11.904;2022-08-26T09:57:51;8.85;;;4.05;;
62574;SDS011;53112;45.602;11.904;2022-08-26T10:00:35;11.68;;;4.20;;
62574;SDS011;53112;45.602;11.904;2022-08-26T10:03:09;8.05;;;3.92;;
62574;SDS011;53112;45.602;11.904;2022-08-26T10:05:53;7.18;;;3.92;;
62574;SDS011;53112;45.602;11.904;2022-08-26T10:08:36;6.90;;;3.78;;
62574;SDS011;53112;45.602;11.904;2022-08-26T10:13:57;7.57;;;4.05;;
62574;SDS011;53112;45.602;11.904;2022-08-26T10:17:12;4.80;;;3.63;;
62574;SDS011;53112;45.602;11.904;2022-08-26T10:19:24;7.68;;;3.85;;
62574;SDS011;53112;45.602;11.904;2022-08-26T10:21:59;7.70;;;3.95;;
62574;SDS011;53112;45.602;11.904;2022-08-26T10:24:48;5.93;;;3.80;;
62574;SDS011;53112;45.602;11.904;2022-08-26T10:27:25;8.40;;;3.95;;
62574;SDS011;53112;45.602;11.904;2022-08-26T10:30:05;9.20;;;4.40;;
62574;SDS011;53112;45.602;11.904;2022-08-26T10:32:40;6.88;;;3.80;;
62574;SDS011;53112;45.602;11.904;2022-08-26T10:35:16;7.90;;;3.67;;
62574;SDS011;53112;45.602;11.904;2022-08-26T10:37:54;6.95;;;3.75;;
62574;SDS011;53112;45.602;11.904;2022-08-26T10:43:13;7.82;;;4.00;;
62574;SDS011;53112;45.602;11.904;2022-08-26T10:45:49;7.13;;;3.63;;
62574;SDS011;53112;45.602;11.904;2022-08-26T10:48:32;7.78;;;3.75;;
62574;SDS011;53112;45.602;11.904;2022-08-26T10:51:05;7.35;;;3.58;;
62574;SDS011;53112;45.602;11.904;2022-08-26T10:53:40;6.60;;;3.40;;
62574;SDS011;53112;45.602;11.904;2022-08-26T11:01:52;6.28;;;3.70;;
62574;SDS011;53112;45.602;11.904;2022-08-26T11:10:05;6.57;;;3.75;;
62574;SDS011;53112;45.602;11.904;2022-08-26T11:22:48;6.70;;;3.90;;
62574;SDS011;53112;45.602;11.904;2022-08-26T11:25:16;5.65;;;3.67;;
62574;SDS011;53112;45.602;11.904;2022-08-26T11:37:57;6.38;;;3.20;;
62574;SDS011;53112;45.602;11.904;2022-08-26T11:40:25;8.43;;;3.83;;
62574;SDS011;53112;45.602;11.904;2022-08-26T11:43:18;7.32;;;3.30;;
62574;SDS011;53112;45.602;11.904;2022-08-26T11:45:57;6.22;;;3.60;;
62574;SDS011;53112;45.602;11.904;2022-08-26T11:48:30;4.65;;;3.20;;
62574;SDS011;53112;45.602;11.904;2022-08-26T11:53:34;8.73;;;3.50;;
62574;SDS011;53112;45.602;11.904;2022-08-26T11:56:08;7.20;;;3.20;;
62574;SDS011;53112;45.602;11.904;2022-08-26T11:58:42;6.90;;;3.30;;
62574;SDS011;53112;45.602;11.904;2022-08-26T12:01:12;8.25;;;3.50;;
62574;SDS011;53112;45.602;11.904;2022-08-26T12:03:55;5.72;;;3.22;;
62574;SDS011;53112;45.602;11.904;2022-08-26T12:06:23;6.18;;;3.38;;
62574;SDS011;53112;45.602;11.904;2022-08-26T12:08:55;6.70;;;3.33;;
62574;SDS011;53112;45.602;11.904;2022-08-26T12:11:26;6.90;;;3.50;;
62574;SDS011;53112;45.602;11.904;2022-08-26T12:16:27;8.00;;;3.30;;
62574;SDS011;53112;45.602;11.904;2022-08-26T12:18:55;6.85;;;3.20;;
62574;SDS011;53112;45.602;11.904;2022-08-26T12:21:24;7.00;;;3.30;;
62574;SDS011;53112;45.602;11.904;2022-08-26T12:23:57;7.35;;;3.10;;
62574;SDS011;53112;45.602;11.904;2022-08-26T12:29:06;7.28;;;3.33;;
62574;SDS011;53112;45.602;11.904;2022-08-26T12:31:39;7.43;;;3.50;;
62574;SDS011;53112;45.602;11.904;2022-08-26T12:34:08;7.00;;;3.47;;
62574;SDS011;53112;45.602;11.904;2022-08-26T12:36:44;6.72;;;3.30;;
62574;SDS011;53112;45.602;11.904;2022-08-26T12:39:27;6.47;;;3.25;;
62574;SDS011;53112;45.602;11.904;2022-08-26T12:42:03;7.63;;;3.35;;
62574;SDS011;53112;45.602;11.904;2022-08-26T12:49:56;8.38;;;3.50;;
62574;SDS011;53112;45.602;11.904;2022-08-26T12:52:26;7.57;;;3.55;;
62574;SDS011;53112;45.602;11.904;2022-08-26T12:55:03;6.03;;;3.13;;
62574;SDS011;53112;45.602;11.904;2022-08-26T12:57:33;6.93;;;3.42;;
62574;SDS011;53112;45.602;11.904;2022-08-26T13:02:56;7.78;;;3.42;;
62574;SDS011;53112;45.602;11.904;2022-08-26T13:05:27;8.00;;;3.50;;
62574;SDS011;53112;45.602;11.904;2022-08-26T13:08:12;5.38;;;3.50;;
62574;SDS011;53112;45.602;11.904;2022-08-26T13:10:42;6.65;;;3.40;;
62574;SDS011;53112;45.602;11.904;2022-08-26T13:13:12;8.13;;;3.67;;
62574;SDS011;53112;45.602;11.904;2022-08-26T13:15:38;7.35;;;3.60;;
62574;SDS011;53112;45.602;11.904;2022-08-26T13:18:04;7.00;;;3.55;;
62574;SDS011;53112;45.602;11.904;2022-08-26T13:20:30;7.00;;;3.53;;
62574;SDS011;53112;45.602;11.904;2022-08-26T13:22:57;6.38;;;3.40;;
62574;SDS011;53112;45.602;11.904;2022-08-26T13:25:23;5.00;;;3.42;;
62574;SDS011;53112;45.602;11.904;2022-08-26T13:27:49;7.63;;;3.67;;
62574;SDS011;53112;45.602;11.904;2022-08-26T13:30:15;8.30;;;3.35;;
62574;SDS011;53112;45.602;11.904;2022-08-26T13:32:41;6.05;;;3.30;;
62574;SDS011;53112;45.602;11.904;2022-08-26T13:35:07;5.75;;;3.03;;
62574;SDS011;53112;45.602;11.904;2022-08-26T13:37:33;5.35;;;3.25;;
62574;SDS011;53112;45.602;11.904;2022-08-26T13:39:59;7.22;;;3.35;;
62574;SDS011;53112;45.602;11.904;2022-08-26T13:42:24;10.95;;;3.30;;
62574;SDS011;53112;45.602;11.904;2022-08-26T13:44:50;9.80;;;3.33;;
62574;SDS011;53112;45.602;11.904;2022-08-26T13:47:22;6.43;;;3.40;;
62574;SDS011;53112;45.602;11.904;2022-08-26T13:49:50;6.47;;;3.35;;
62574;SDS011;53112;45.602;11.904;2022-08-26T13:52:16;6.38;;;3.22;;
62574;SDS011;53112;45.602;11.904;2022-08-26T13:54:42;5.90;;;3.40;;
62574;SDS011;53112;45.602;11.904;2022-08-26T13:57:08;7.32;;;3.42;;
62574;SDS011;53112;45.602;11.904;2022-08-26T13:59:34;6.88;;;3.28;;
62574;SDS011;53112;45.602;11.904;2022-08-26T14:02:00;7.55;;;3.40;;
62574;SDS011;53112;45.602;11.904;2022-08-26T14:04:28;5.35;;;3.45;;
62574;SDS011;53112;45.602;11.904;2022-08-26T14:06:54;7.32;;;3.60;;
62574;SDS011;53112;45.602;11.904;2022-08-26T14:09:20;7.45;;;3.40;;
62574;SDS011;53112;45.602;11.904;2022-08-26T14:11:46;5.50;;;3.25;;
62574;SDS011;53112;45.602;11.904;2022-08-26T14:14:12;6.85;;;3.55;;
62574;SDS011;53112;45.602;11.904;2022-08-26T14:16:38;7.68;;;3.60;;
62574;SDS011;53112;45.602;11.904;2022-08-26T14:19:05;8.77;;;4.15;;
62574;SDS011;53112;45.602;11.904;2022-08-26T14:21:34;7.18;;;4.07;;
62574;SDS011;53112;45.602;11.904;2022-08-26T14:24:04;6.35;;;3.70;;
62574;SDS011;53112;45.602;11.904;2022-08-26T14:26:30;7.45;;;4.10;;
62574;SDS011;53112;45.602;11.904;2022-08-26T14:28:57;8.13;;;3.47;;
62574;SDS011;53112;45.602;11.904;2022-08-26T14:31:27;6.93;;;3.40;;
62574;SDS011;53112;45.602;11.904;2022-08-26T14:33:56;7.35;;;3.72;;
62574;SDS011;53112;45.602;11.904;2022-08-26T14:36:25;8.82;;;3.78;;
62574;SDS011;53112;45.602;11.904;2022-08-26T14:39:03;6.38;;;3.50;;
62574;SDS011;53112;45.602;11.904;2022-08-26T14:41:33;6.85;;;3.70;;
62574;SDS011;53112;45.602;11.904;2022-08-26T14:44:09;8.05;;;3.63;;
62574;SDS011;53112;45.602;11.904;2022-08-26T14:46:47;6.32;;;3.40;;
62574;SDS011;53112;45.602;11.904;2022-08-26T14:49:17;9.95;;;3.30;;
62574;SDS011;53112;45.602;11.904;2022-08-26T14:51:44;6.53;;;3.35;;
62574;SDS011;53112;45.602;11.904;2022-08-26T14:54:11;5.53;;;3.58;;
62574;SDS011;53112;45.602;11.904;2022-08-26T14:56:47;5.90;;;3.72;;
62574;SDS011;53112;45.602;11.904;2022-08-26T14:59:16;6.70;;;3.63;;
62574;SDS011;53112;45.602;11.904;2022-08-26T15:01:45;5.93;;;3.58;;
62574;SDS011;53112;45.602;11.904;2022-08-26T15:04:11;8.38;;;3.85;;
62574;SDS011;53112;45.602;11.904;2022-08-26T15:06:39;7.65;;;3.90;;
62574;SDS011;53112;45.602;11.904;2022-08-26T15:09:06;8.00;;;3.88;;
62574;SDS011;53112;45.602;11.904;2022-08-26T15:11:33;6.60;;;3.97;;
62574;SDS011;53112;45.602;11.904;2022-08-26T15:13:59;8.15;;;3.95;;
62574;SDS011;53112;45.602;11.904;2022-08-26T15:16:25;5.93;;;3.80;;
62574;SDS011;53112;45.602;11.904;2022-08-26T15:18:51;6.88;;;3.58;;
62574;SDS011;53112;45.602;11.904;2022-08-26T15:21:18;8.02;;;4.00;;
62574;SDS011;53112;45.602;11.904;2022-08-26T15:23:45;8.85;;;4.22;;
62574;SDS011;53112;45.602;11.904;2022-08-26T15:26:13;8.25;;;4.25;;
62574;SDS011;53112;45.602;11.904;2022-08-26T15:28:40;6.82;;;4.40;;
62574;SDS011;53112;45.602;11.904;2022-08-26T15:31:07;8.43;;;4.10;;
62574;SDS011;53112;45.602;11.904;2022-08-26T15:33:33;8.50;;;4.30;;
62574;SDS011;53112;45.602;11.904;2022-08-26T15:36:01;8.60;;;4.22;;
62574;SDS011;53112;45.602;11.904;2022-08-26T15:38:29;7.28;;;4.10;;
62574;SDS011;53112;45.602;11.904;2022-08-26T15:40:57;7.13;;;4.00;;
62574;SDS011;53112;45.602;11.904;2022-08-26T15:43:25;8.82;;;3.97;;
62574;SDS011;53112;45.602;11.904;2022-08-26T15:45:52;9.52;;;3.90;;
62574;SDS011;53112;45.602;11.904;2022-08-26T15:48:19;6.28;;;4.10;;
62574;SDS011;53112;45.602;11.904;2022-08-26T15:53:18;7.82;;;4.10;;
62574;SDS011;53112;45.602;11.904;2022-08-26T15:55:46;7.55;;;4.00;;
62574;SDS011;53112;45.602;11.904;2022-08-26T15:58:12;8.35;;;4.03;;
62574;SDS011;53112;45.602;11.904;2022-08-26T16:00:39;7.05;;;3.85;;
62574;SDS011;53112;45.602;11.904;2022-08-26T16:03:06;9.73;;;3.65;;
62574;SDS011;53112;45.602;11.904;2022-08-26T16:05:36;7.20;;;3.83;;
62574;SDS011;53112;45.602;11.904;2022-08-26T16:08:05;6.57;;;3.63;;
62574;SDS011;53112;45.602;11.904;2022-08-26T16:10:33;6.35;;;3.80;;
62574;SDS011;53112;45.602;11.904;2022-08-26T16:13:00;7.32;;;4.05;;
62574;SDS011;53112;45.602;11.904;2022-08-26T16:15:26;9.32;;;4.60;;
62574;SDS011;53112;45.602;11.904;2022-08-26T16:17:52;9.48;;;4.97;;